Terminal Aerodrome Forecast
Issued by NWS

Home | Current Version | Previous Version | Text Only | Print | Product List | Glossary On
Versions: 1 2 3 4 5 6 7 8 9 10 11 12 13 14 15 16 17 18 19 20 21 22 23 24 25 26 27 28 29 30 31 32
000
FTAK31 PAFA 221149
TAFABT
TAF
PABT 221149Z 2212/2312 17004KT P6SM FEW100 BKN250
     FM221500 23008G15KT P6SM VCSH SCT060 BKN100 OVC200
     FM222100 24011G18KT P6SM BKN100 BKN200=

USA.gov is the U.S. government's official web portal to all federal, state and local government web resources and services.